createdAt,value
2023-05-14T00:00:25.999Z,4.32
2023-05-14T00:05:28.592Z,3.83
2023-05-14T00:10:31.032Z,4.57
2023-05-14T00:15:34.501Z,5.18
2023-05-14T00:20:37.136Z,4.13
2023-05-14T00:25:39.826Z,5.72
2023-05-14T00:30:42.627Z,5.03
2023-05-14T00:35:45.410Z,7.72
2023-05-14T00:40:51.682Z,7.13
2023-05-14T00:45:56.205Z,6.80
2023-05-14T00:50:58.681Z,6.80
2023-05-14T00:56:03.647Z,6.75
2023-05-14T01:01:06.300Z,6.88
2023-05-14T01:06:56.751Z,7.20
2023-05-14T01:12:18.670Z,6.70
2023-05-14T01:17:23.518Z,6.00
2023-05-14T01:22:26.410Z,6.35
2023-05-14T01:27:35.028Z,6.35
2023-05-14T01:32:39.753Z,7.05
2023-05-14T01:37:44.361Z,8.23
2023-05-14T01:42:49.593Z,9.25
2023-05-14T01:47:53.013Z,10.18
2023-05-14T01:52:56.939Z,9.48
2023-05-14T01:57:59.722Z,7.93
2023-05-14T02:03:02.644Z,9.18
2023-05-14T02:08:05.387Z,7.88
2023-05-14T02:13:09.895Z,7.80
2023-05-14T02:18:12.907Z,9.35
2023-05-14T02:23:15.559Z,9.60
2023-05-14T02:28:18.404Z,6.75
2023-05-14T02:33:21.037Z,6.00
2023-05-14T02:38:23.977Z,6.43
2023-05-14T02:43:26.545Z,6.15
2023-05-14T02:48:29.022Z,7.05
2023-05-14T02:53:31.542Z,5.03
2023-05-14T02:58:34.530Z,5.10
2023-05-14T03:03:38.431Z,4.35
2023-05-14T03:08:41.943Z,3.25
2023-05-14T03:13:44.493Z,4.20
2023-05-14T03:18:47.006Z,4.90
2023-05-14T03:23:49.655Z,3.80
2023-05-14T03:28:54.322Z,3.88
2023-05-14T03:33:57.170Z,3.90
2023-05-14T03:38:59.801Z,3.40
2023-05-14T03:44:02.720Z,3.88
2023-05-14T03:49:05.608Z,4.38
2023-05-14T03:54:08.429Z,4.25
2023-05-14T03:59:11.101Z,3.30
2023-05-14T04:04:13.746Z,3.25
2023-05-14T04:09:16.313Z,3.33
2023-05-14T04:14:18.914Z,3.65
2023-05-14T04:19:21.772Z,3.00
2023-05-14T04:24:24.345Z,2.72
2023-05-14T04:29:26.905Z,2.60
2023-05-14T04:34:29.418Z,3.30
2023-05-14T04:39:32.071Z,3.85
2023-05-14T04:44:35.506Z,4.60
2023-05-14T04:49:38.040Z,4.95
2023-05-14T04:54:40.757Z,5.82
2023-05-14T04:59:43.411Z,5.15
2023-05-14T05:04:47.462Z,5.03
2023-05-14T05:09:50.076Z,3.28
2023-05-14T05:14:52.622Z,2.53
2023-05-14T05:19:55.533Z,2.22
2023-05-14T05:24:59.022Z,2.60
2023-05-14T05:30:05.016Z,2.40
2023-05-14T05:35:09.374Z,2.13
2023-05-14T05:40:14.322Z,1.92
2023-05-14T05:45:16.861Z,1.90
2023-05-14T05:50:20.073Z,2.25
2023-05-14T05:55:22.834Z,2.30
2023-05-14T06:00:26.042Z,2.33
2023-05-14T06:05:28.847Z,2.58
2023-05-14T06:10:31.535Z,2.22
2023-05-14T06:15:34.093Z,2.58
2023-05-14T06:20:36.764Z,2.30
2023-05-14T06:25:39.349Z,2.20
2023-05-14T06:30:42.193Z,1.90
2023-05-14T06:35:46.178Z,2.53
2023-05-14T06:40:48.703Z,2.60
2023-05-14T06:45:51.949Z,1.88
2023-05-14T06:50:54.589Z,2.03
2023-05-14T06:55:57.078Z,2.20
2023-05-14T07:01:00.336Z,2.45
2023-05-14T07:06:02.934Z,2.58
2023-05-14T07:11:05.617Z,2.45
2023-05-14T07:16:11.886Z,2.30
2023-05-14T07:21:14.348Z,2.45
2023-05-14T07:26:16.903Z,2.13
2023-05-14T07:31:19.419Z,2.20
2023-05-14T07:36:21.927Z,1.95
2023-05-14T07:41:24.510Z,2.55
2023-05-14T07:46:26.968Z,1.85
2023-05-14T07:51:29.594Z,2.38
2023-05-14T07:56:32.137Z,1.90
2023-05-14T08:01:34.710Z,2.53
2023-05-14T08:06:37.509Z,2.33
2023-05-14T08:11:40.077Z,1.92
2023-05-14T08:16:42.610Z,2.33
2023-05-14T08:21:45.290Z,2.13
2023-05-14T08:26:48.031Z,2.13
2023-05-14T08:31:51.512Z,1.80
2023-05-14T08:36:54.157Z,1.80
2023-05-14T08:41:58.250Z,1.77
2023-05-14T08:47:01.030Z,1.92
2023-05-14T08:52:04.245Z,1.80
2023-05-14T08:57:10.131Z,2.50
2023-05-14T09:02:17.209Z,2.05
2023-05-14T09:07:19.777Z,2.30
2023-05-14T09:12:22.777Z,1.92
2023-05-14T09:17:27.784Z,2.10
2023-05-14T09:22:33.460Z,2.13
2023-05-14T09:27:36.815Z,1.80
2023-05-14T09:32:47.578Z,1.92
2023-05-14T09:37:52.368Z,1.85
2023-05-14T09:42:55.227Z,1.90
2023-05-14T09:48:01.396Z,1.85
2023-05-14T09:53:04.684Z,2.10
2023-05-14T09:58:07.207Z,2.03
2023-05-14T10:03:13.733Z,1.98
2023-05-14T10:08:27.107Z,1.83
2023-05-14T10:13:37.661Z,2.08
2023-05-14T10:18:52.193Z,1.58
2023-05-14T10:23:54.789Z,1.95
2023-05-14T10:28:58.429Z,1.60
2023-05-14T10:34:00.928Z,1.80
2023-05-14T10:44:10.356Z,2.00
2023-05-14T10:49:12.874Z,2.63
2023-05-14T10:54:17.185Z,1.77
2023-05-14T10:59:19.994Z,1.88
2023-05-14T11:04:25.640Z,1.58
2023-05-14T11:09:28.378Z,1.98
2023-05-14T11:19:33.405Z,2.15
2023-05-14T11:24:35.947Z,1.60
2023-05-14T11:29:38.898Z,1.90
2023-05-14T11:39:52.531Z,1.92
2023-05-14T11:44:55.122Z,2.10
2023-05-14T11:49:57.729Z,2.20
2023-05-14T11:55:00.394Z,2.42
2023-05-14T12:00:05.246Z,1.73
2023-05-14T12:05:11.867Z,2.25
2023-05-14T12:10:15.205Z,2.53
2023-05-14T12:15:18.508Z,2.53
2023-05-14T12:20:21.144Z,1.77
2023-05-14T12:25:26.369Z,2.00
2023-05-14T12:30:37.447Z,2.70
2023-05-14T12:35:40.025Z,1.70
2023-05-14T12:40:42.599Z,1.88
2023-05-14T12:45:45.105Z,1.40
2023-05-14T12:50:48.815Z,1.65
2023-05-14T12:55:51.369Z,1.67
2023-05-14T13:00:53.965Z,1.77
2023-05-14T13:05:56.682Z,1.50
2023-05-14T13:10:59.242Z,1.33
2023-05-14T13:16:01.673Z,1.90
2023-05-14T13:21:06.593Z,3.10
2023-05-14T13:26:10.073Z,1.95
2023-05-14T13:31:13.544Z,2.00
2023-05-14T13:36:16.688Z,5.20
2023-05-14T13:41:19.283Z,4.30
2023-05-14T13:46:21.961Z,3.17
2023-05-14T13:51:24.479Z,2.55
2023-05-14T13:56:27.072Z,2.17
2023-05-14T14:01:31.235Z,2.13
2023-05-14T14:06:33.792Z,2.13
2023-05-14T14:11:36.544Z,2.20
2023-05-14T14:16:39.350Z,1.67
2023-05-14T14:21:43.117Z,1.95
2023-05-14T14:26:45.617Z,2.17
2023-05-14T14:31:48.339Z,1.83
2023-05-14T14:36:51.068Z,2.00
2023-05-14T14:41:53.602Z,1.90
2023-05-14T14:46:56.143Z,2.47
2023-05-14T14:51:58.853Z,2.25
2023-05-14T14:57:01.424Z,2.65
2023-05-14T15:02:04.306Z,2.05
2023-05-14T15:07:06.836Z,2.38
2023-05-14T15:12:10.526Z,2.20
2023-05-14T15:17:13.038Z,2.50
2023-05-14T15:22:15.904Z,2.30
2023-05-14T15:27:18.537Z,2.42
2023-05-14T15:32:21.251Z,1.98
2023-05-14T15:37:27.152Z,2.42
2023-05-14T15:42:29.724Z,2.72
2023-05-14T15:47:32.899Z,2.72
2023-05-14T15:52:36.770Z,2.63
2023-05-14T15:57:39.459Z,2.80
2023-05-14T16:02:42.263Z,2.65
2023-05-14T16:07:44.929Z,2.63
2023-05-14T16:12:47.425Z,2.97
2023-05-14T16:17:50.065Z,3.38
2023-05-14T16:22:52.612Z,2.80
2023-05-14T16:27:55.172Z,2.95
2023-05-14T16:32:57.719Z,2.95
2023-05-14T16:38:00.257Z,3.10
2023-05-14T16:43:02.954Z,3.05
2023-05-14T16:48:06.445Z,3.58
2023-05-14T16:53:09.198Z,3.50
2023-05-14T16:58:11.630Z,3.75
2023-05-14T17:03:14.094Z,4.10
2023-05-14T17:08:16.781Z,3.80
2023-05-14T17:13:19.466Z,4.68
2023-05-14T17:18:22.063Z,4.78
2023-05-14T17:23:24.631Z,5.90
2023-05-14T17:28:28.768Z,5.75
2023-05-14T17:33:31.980Z,6.00
2023-05-14T17:38:35.082Z,6.20
2023-05-14T17:43:37.619Z,6.97
2023-05-14T17:48:40.111Z,6.10
2023-05-14T17:53:42.568Z,6.18
2023-05-14T17:58:46.213Z,5.85
2023-05-14T18:03:48.850Z,6.18
2023-05-14T18:08:51.505Z,6.03
2023-05-14T18:13:54.079Z,5.50
2023-05-14T18:18:56.807Z,5.65
2023-05-14T18:23:59.530Z,6.30
2023-05-14T18:29:02.122Z,6.63
2023-05-14T18:34:04.752Z,6.30
2023-05-14T18:39:07.397Z,6.63
2023-05-14T18:44:10.079Z,6.65
2023-05-14T18:49:12.572Z,6.95
2023-05-14T18:54:15.022Z,7.15
2023-05-14T18:59:17.577Z,10.45
2023-05-14T19:04:20.154Z,9.48
2023-05-14T19:09:23.152Z,7.95
2023-05-14T19:14:26.530Z,7.72
2023-05-14T19:19:29.306Z,7.60
2023-05-14T19:24:31.852Z,8.82
2023-05-14T19:29:34.508Z,6.93
2023-05-14T19:34:37.113Z,8.48
2023-05-14T19:39:39.646Z,8.25
2023-05-14T19:44:42.354Z,8.40
2023-05-14T19:49:44.807Z,8.50
2023-05-14T19:54:47.344Z,8.30
2023-05-14T19:59:49.996Z,9.27
2023-05-14T20:04:55.739Z,9.15
2023-05-14T20:09:58.238Z,8.30
2023-05-14T20:15:00.725Z,10.27
2023-05-14T20:20:03.754Z,9.10
2023-05-14T20:25:07.720Z,9.77
2023-05-14T20:30:10.786Z,9.68
2023-05-14T20:35:13.599Z,9.02
2023-05-14T20:40:16.145Z,10.32
2023-05-14T20:45:19.112Z,9.98
2023-05-14T20:50:22.846Z,9.68
2023-05-14T20:55:25.705Z,10.43
2023-05-14T21:00:28.480Z,11.15
2023-05-14T21:05:30.966Z,10.70
2023-05-14T21:10:33.448Z,10.73
2023-05-14T21:15:37.053Z,10.75
2023-05-14T21:20:40.539Z,10.73
2023-05-14T21:25:43.040Z,9.52
2023-05-14T21:30:46.112Z,10.13
2023-05-14T21:35:48.746Z,8.95
2023-05-14T21:40:51.599Z,9.27
2023-05-14T21:45:54.237Z,9.38
2023-05-14T21:50:56.651Z,9.15
2023-05-14T21:55:59.116Z,8.38
2023-05-14T22:01:01.563Z,8.38
2023-05-14T22:06:04.492Z,8.40
2023-05-14T22:11:06.910Z,7.80
2023-05-14T22:16:13.755Z,8.07
2023-05-14T22:21:16.859Z,8.05
2023-05-14T22:26:19.723Z,8.77
2023-05-14T22:31:22.227Z,7.40
2023-05-14T22:36:24.721Z,7.38
2023-05-14T22:41:27.298Z,7.63
2023-05-14T22:46:30.346Z,6.82
2023-05-14T22:51:33.031Z,7.50
2023-05-14T22:56:36.117Z,7.30
2023-05-14T23:01:39.247Z,6.20
2023-05-14T23:06:41.911Z,6.32
2023-05-14T23:11:44.478Z,7.50
2023-05-14T23:16:46.942Z,7.20
2023-05-14T23:21:49.452Z,8.10
2023-05-14T23:26:51.944Z,8.13
2023-05-14T23:31:54.600Z,8.90
2023-05-14T23:36:57.146Z,9.15
2023-05-14T23:41:59.725Z,8.20
2023-05-14T23:47:04.593Z,9.90
2023-05-14T23:52:07.495Z,11.68
2023-05-14T23:57:13.034Z,13.93
